Time;durP1;ratioP1;P1;durP2;ratioP2;P2;SDS_P1;SDS_P2;PMS_P1;PMS_P2;Temp;Humidity;BMP_temperature;BMP_pressure;BME280_temperature;BME280_humidity;BME280_pressure;Samples;Min_cycle;Max_cycle;Signal;HPM_P1;HPM_P2
2024/03/13 00:00:55;;;;;;;;;;;;;;;5.43;100.00;96415.59;5065573;28;19932;-72
2024/03/13 00:03:21;;;;;;;;;;;;;;;5.42;100.00;96408.81;5064333;28;19938;-72
2024/03/13 00:05:48;;;;;;;;;;;;;;;5.38;100.00;96404.97;5065428;28;19932;-73
2024/03/13 00:08:13;;;;;;;;;;;;;;;5.40;100.00;96408.19;5065647;28;19959;-65
2024/03/13 00:10:39;;;;;;;;;;;;;;;5.40;100.00;96413.38;5064075;28;20304;-66
2024/03/13 00:13:05;;;;;;;;;;;;;;;5.38;100.00;96402.38;5065131;28;19933;-66
2024/03/13 00:15:33;;;;;;;;;;;;;;;5.36;100.00;96408.75;5065819;28;19934;-66
2024/03/13 00:18:01;;;;;;;;;;;;;;;5.34;100.00;96406.31;5064970;28;19936;-65
2024/03/13 00:20:30;;;;;;;;;;;;;;;5.33;100.00;96401.31;5065162;28;19937;-65
2024/03/13 00:22:56;;;;;;;;;;;;;;;5.32;100.00;96397.09;5064953;28;19936;-66
2024/03/13 00:25:22;;;;;;;;;;;;;;;5.29;100.00;96399.09;5064841;28;19948;-70
2024/03/13 00:27:48;;;;;;;;;;;;;;;5.27;100.00;96395.03;5064774;28;20249;-77
2024/03/13 00:30:15;;;;;;;;;;;;;;;5.25;100.00;96378.84;5064828;28;19934;-76
2024/03/13 00:32:42;;;;;;;;;;;;;;;5.26;100.00;96380.44;5065185;28;19933;-76
2024/03/13 00:35:08;;;;;;;;;;;;;;;5.25;100.00;96371.84;5063342;28;19970;-76
2024/03/13 00:37:37;;;;;;;;;;;;;;;5.23;100.00;96365.22;5064630;28;20101;-76
2024/03/13 00:40:03;;;;;;;;;;;;;;;5.20;100.00;96362.97;5064584;28;20117;-76
2024/03/13 00:42:29;;;;;;;;;;;;;;;5.16;100.00;96346.94;5064590;28;20304;-70
2024/03/13 00:44:55;;;;;;;;;;;;;;;5.14;100.00;96348.94;5064547;28;19936;-67
2024/03/13 00:47:22;;;;;;;;;;;;;;;5.14;100.00;96348.13;5064363;28;19983;-70
2024/03/13 00:49:49;;;;;;;;;;;;;;;5.12;100.00;96337.91;5064447;28;19944;-69
2024/03/13 00:52:15;;;;;;;;;;;;;;;5.11;100.00;96351.13;5064935;28;19935;-71
2024/03/13 00:54:44;;;;;;;;;;;;;;;5.08;100.00;96339.28;5064260;28;19946;-70
2024/03/13 00:57:11;;;;;;;;;;;;;;;5.07;100.00;96333.28;5064870;28;19936;-70
2024/03/13 00:59:39;;;;;;;;;;;;;;;5.07;100.00;96341.06;5065025;28;19936;-69
2024/03/13 01:02:07;;;;;;;;;;;;;;;5.08;100.00;96337.50;5064508;28;20090;-72
2024/03/13 01:04:33;;;;;;;;;;;;;;;5.09;100.00;96336.50;5064184;28;19934;-73
2024/03/13 01:06:59;;;;;;;;;;;;;;;5.12;100.00;96334.50;5064629;28;20108;-73
2024/03/13 01:09:26;;;;;;;;;;;;;;;5.09;100.00;96328.69;5064516;28;19958;-73
2024/03/13 01:11:52;;;;;;;;;;;;;;;5.06;100.00;96330.84;5064047;28;19934;-72
2024/03/13 01:14:21;;;;;;;;;;;;;;;5.06;100.00;96334.28;5064045;28;19962;-74
2024/03/13 01:16:52;;;;;;;;;;;;;;;5.05;100.00;96332.66;5063186;28;19939;-73
2024/03/13 01:19:21;;;;;;;;;;;;;;;5.04;100.00;96333.66;5064483;28;19937;-74
2024/03/13 01:21:52;;;;;;;;;;;;;;;5.03;100.00;96332.03;5063611;28;19941;-70
2024/03/13 01:24:18;;;;;;;;;;;;;;;5.04;100.00;96343.22;5063914;28;20129;-74
2024/03/13 01:26:44;;;;;;;;;;;;;;;5.02;100.00;96334.84;5064709;28;19949;-73
2024/03/13 01:29:10;;;;;;;;;;;;;;;5.02;100.00;96345.22;5064719;28;19933;-74
2024/03/13 01:31:36;;;;;;;;;;;;;;;5.01;100.00;96333.22;5063909;28;19936;-73
2024/03/13 01:34:03;;;;;;;;;;;;;;;5.01;100.00;96336.63;5063717;28;19970;-74
2024/03/13 01:39:13;;;;;;;;;;;;;;;5.00;100.00;96327.22;5064162;28;19936;-77
2024/03/13 01:55:35;;;;;;;;;;;;;;;5.11;100.00;96328.50;5063758;28;20235;-79
2024/03/13 02:03:15;;;;;;;;;;;;;;;5.09;100.00;96328.69;5063403;28;20120;-71
2024/03/13 02:05:42;;;;;;;;;;;;;;;5.11;100.00;96327.72;5063147;28;19931;-71
2024/03/13 02:08:09;;;;;;;;;;;;;;;5.07;100.00;96322.09;5063547;28;20138;-72
2024/03/13 02:10:35;;;;;;;;;;;;;;;5.06;100.00;96330.84;5063534;28;19938;-71
2024/03/13 02:13:10;;;;;;;;;;;;;;;5.05;100.00;96324.84;5063284;28;19942;-72
2024/03/13 02:15:37;;;;;;;;;;;;;;;5.05;100.00;96327.47;5063257;28;19936;-70
2024/03/13 02:18:14;;;;;;;;;;;;;;;5.07;100.00;96322.88;5063322;28;20123;-75
2024/03/13 02:20:40;;;;;;;;;;;;;;;5.07;100.00;96317.69;5063966;28;19932;-74
2024/03/13 02:23:06;;;;;;;;;;;;;;;5.07;100.00;96316.88;5063995;28;19933;-74
2024/03/13 02:25:33;;;;;;;;;;;;;;;5.05;100.00;96313.66;5063197;28;20228;-75
2024/03/13 02:28:02;;;;;;;;;;;;;;;5.02;100.00;96314.06;5066568;28;19951;-75
2024/03/13 02:30:29;;;;;;;;;;;;;;;5.00;100.00;96310.84;5066938;28;19943;-75
2024/03/13 02:32:54;;;;;;;;;;;;;;;5.01;100.00;96312.44;5067637;28;20210;-77
2024/03/13 02:35:21;;;;;;;;;;;;;;;5.00;100.00;96316.03;5066897;28;19969;-78
2024/03/13 02:37:47;;;;;;;;;;;;;;;5.01;100.00;96315.03;5066879;28;19943;-72
2024/03/13 02:40:16;;;;;;;;;;;;;;;4.97;100.00;96306.78;5066701;28;19934;-73
2024/03/13 02:42:43;;;;;;;;;;;;;;;4.95;100.00;96303.56;5066760;28;19956;-73
2024/03/13 02:45:09;;;;;;;;;;;;;;;4.95;100.00;96300.97;5066693;28;20120;-73
2024/03/13 02:47:35;;;;;;;;;;;;;;;4.96;100.00;96310.38;5066559;28;19957;-72
2024/03/13 02:50:01;;;;;;;;;;;;;;;4.98;100.00;96305.81;5066656;28;19940;-72
2024/03/13 02:52:27;;;;;;;;;;;;;;;5.02;100.00;96301.84;5066578;28;19931;-67
2024/03/13 02:54:53;;;;;;;;;;;;;;;5.03;100.00;96302.66;5065922;28;19941;-73
2024/03/13 02:57:19;;;;;;;;;;;;;;;5.04;100.00;96304.25;5066328;28;19934;-72
2024/03/13 02:59:44;;;;;;;;;;;;;;;5.05;100.00;96311.06;5066544;28;20004;-72
2024/03/13 03:02:10;;;;;;;;;;;;;;;5.05;100.00;96301.47;5066974;28;19946;-73
2024/03/13 03:04:36;;;;;;;;;;;;;;;5.08;100.00;96303.72;5066155;28;19957;-73
2024/03/13 03:07:02;;;;;;;;;;;;;;;5.09;100.00;96304.50;5066804;28;20225;-73
2024/03/13 03:09:28;;;;;;;;;;;;;;;5.06;100.00;96313.47;5066536;28;19948;-73
2024/03/13 03:11:54;;;;;;;;;;;;;;;5.08;100.00;96315.88;5066100;28;19936;-72
2024/03/13 03:14:20;;;;;;;;;;;;;;;5.09;100.00;96320.09;5065922;28;20224;-81
2024/03/13 03:16:46;;;;;;;;;;;;;;;5.08;100.00;96323.69;5066791;28;19930;-81
2024/03/13 03:19:12;;;;;;;;;;;;;;;5.07;100.00;96322.09;5066071;28;19940;-83
2024/03/13 03:21:39;;;;;;;;;;;;;;;5.13;100.00;96323.13;5066425;28;19953;-82
2024/03/13 03:24:05;;;;;;;;;;;;;;;5.17;100.00;96329.56;5065967;28;19936;-82
2024/03/13 03:26:31;;;;;;;;;;;;;;;5.18;100.00;96324.16;5065872;28;19932;-82
2024/03/13 03:28:57;;;;;;;;;;;;;;;5.19;100.00;96327.59;5065912;28;20000;-71
2024/03/13 03:31:23;;;;;;;;;;;;;;;5.17;100.00;96319.19;5065806;28;19935;-73
2024/03/13 03:33:50;;;;;;;;;;;;;;;5.17;100.00;96321.78;5065820;28;19969;-82
2024/03/13 03:36:16;;;;;;;;;;;;;;;5.19;100.00;96325.00;5065711;28;20205;-82
2024/03/13 03:38:41;;;;;;;;;;;;;;;5.21;100.00;96323.00;5064633;28;19940;-80
2024/03/13 03:41:07;;;;;;;;;;;;;;;5.22;100.00;96322.00;5066191;28;19934;-81
2024/03/13 03:43:34;;;;;;;;;;;;;;;5.22;100.00;96325.41;5065693;28;19945;-82
2024/03/13 03:45:59;;;;;;;;;;;;;;;5.19;100.00;96325.00;5065571;28;19954;-82
2024/03/13 03:48:25;;;;;;;;;;;;;;;5.14;100.00;96330.72;5065404;28;20237;-66
2024/03/13 03:50:51;;;;;;;;;;;;;;;5.12;100.00;96324.13;5064714;28;19939;-66
2024/03/13 03:53:18;;;;;;;;;;;;;;;5.13;100.00;96330.94;5065354;28;19969;-66
2024/03/13 03:55:44;;;;;;;;;;;;;;;5.15;100.00;96331.56;5065215;28;20101;-66
2024/03/13 03:58:10;;;;;;;;;;;;;;;5.17;100.00;96330.38;5065235;28;19940;-66
2024/03/13 04:00:36;;;;;;;;;;;;;;;5.21;100.00;96328.22;5065951;28;20229;-67
2024/03/13 04:03:02;;;;;;;;;;;;;;;5.23;100.00;96334.03;5065091;28;19971;-66
2024/03/13 04:05:28;;;;;;;;;;;;;;;5.22;100.00;96322.00;5065114;28;19934;-66
2024/03/13 04:07:54;;;;;;;;;;;;;;;5.24;100.00;96322.63;5065211;28;19962;-78
2024/03/13 04:10:20;;;;;;;;;;;;;;;5.26;100.00;96323.25;5065143;28;19938;-66
2024/03/13 04:12:46;;;;;;;;;;;;;;;5.22;100.00;96322.00;5064937;28;19936;-66
2024/03/13 04:15:12;;;;;;;;;;;;;;;5.20;100.00;96324.78;5065426;28;19936;-66
2024/03/13 04:17:39;;;;;;;;;;;;;;;5.20;100.00;96327.38;5065317;28;20238;-66
2024/03/13 04:20:12;;;;;;;;;;;;;;;5.19;100.00;96331.00;5065029;28;19937;-66
2024/03/13 04:22:38;;;;;;;;;;;;;;;5.21;100.00;96331.63;5065206;28;19937;-66
2024/03/13 04:25:04;;;;;;;;;;;;;;;5.24;100.00;96330.44;5064717;28;19933;-70
2024/03/13 04:27:30;;;;;;;;;;;;;;;5.24;100.00;96330.44;5064638;28;19954;-78
2024/03/13 04:29:55;;;;;;;;;;;;;;;5.26;100.00;96326.66;5064774;28;19937;-77
2024/03/13 04:32:21;;;;;;;;;;;;;;;5.29;100.00;96328.88;5064712;28;19932;-78
2024/03/13 04:34:47;;;;;;;;;;;;;;;5.30;100.00;96332.28;5064444;28;19964;-77
2024/03/13 04:37:15;;;;;;;;;;;;;;;5.33;100.00;96331.91;5064528;28;19960;-77
2024/03/13 04:39:41;;;;;;;;;;;;;;;5.35;100.00;96329.91;5065196;28;19940;-76
2024/03/13 04:42:07;;;;;;;;;;;;;;;5.38;100.00;96331.34;5064465;28;19931;-81
2024/03/13 04:44:33;;;;;;;;;;;;;;;5.39;100.00;96338.94;5064423;28;20129;-65
2024/03/13 04:46:59;;;;;;;;;;;;;;;5.39;100.00;96336.34;5064250;28;20102;-66
2024/03/13 04:49:25;;;;;;;;;;;;;;;5.41;100.00;96338.78;5064081;28;20000;-67
2024/03/13 04:51:51;;;;;;;;;;;;;;;5.41;100.00;96336.97;5064466;28;19936;-67
2024/03/13 04:54:17;;;;;;;;;;;;;;;5.42;100.00;96341.19;5064277;28;19993;-67
2024/03/13 04:56:44;;;;;;;;;;;;;;;5.44;100.00;96338.41;5064228;28;19941;-67
2024/03/13 04:59:10;;;;;;;;;;;;;;;5.45;100.00;96348.59;5064855;28;20111;-66
2024/03/13 05:01:36;;;;;;;;;;;;;;;5.46;100.00;96346.84;5064235;28;19948;-66
2024/03/13 05:04:01;;;;;;;;;;;;;;;5.44;100.00;96344.41;5064658;28;19934;-83
2024/03/13 05:06:27;;;;;;;;;;;;;;;5.44;100.00;96354.00;5064162;28;19944;-84
2024/03/13 05:08:54;;;;;;;;;;;;;;;5.45;100.00;96361.59;5064021;28;19960;-83
2024/03/13 05:11:20;;;;;;;;;;;;;;;5.42;100.00;96358.59;5063822;28;19941;-82
2024/03/13 05:13:46;;;;;;;;;;;;;;;5.40;100.00;96361.38;5063975;28;19939;-82
2024/03/13 05:16:13;;;;;;;;;;;;;;;5.42;100.00;96359.41;5063933;28;19942;-81
2024/03/13 05:18:38;;;;;;;;;;;;;;;5.45;100.00;96355.59;5063596;28;19958;-71
2024/03/13 05:21:04;;;;;;;;;;;;;;;5.47;100.00;96356.22;5064564;28;19940;-75
2024/03/13 05:23:31;;;;;;;;;;;;;;;5.49;100.00;96359.44;5063762;28;19936;-76
2024/03/13 05:25:56;;;;;;;;;;;;;;;5.52;100.00;96366.06;5063983;28;19935;-78
2024/03/13 05:28:22;;;;;;;;;;;;;;;5.51;100.00;96364.47;5079487;28;20117;-76
2024/03/13 05:30:49;;;;;;;;;;;;;;;5.53;100.00;96371.09;5064385;28;20201;-75
2024/03/13 05:33:15;;;;;;;;;;;;;;;5.55;100.00;96365.69;5064462;28;19931;-75
2024/03/13 05:35:41;;;;;;;;;;;;;;;5.59;100.00;96370.34;5063673;28;19948;-75
2024/03/13 05:38:07;;;;;;;;;;;;;;;5.60;100.00;96365.94;5063733;28;19939;-73
2024/03/13 05:40:32;;;;;;;;;;;;;;;5.63;100.00;96368.97;5063611;28;19933;-73
2024/03/13 05:42:58;;;;;;;;;;;;;;;5.64;100.00;96369.75;5063734;28;20229;-72
2024/03/13 05:45:24;;;;;;;;;;;;;;;5.60;100.00;96368.53;5063750;28;20128;-73
2024/03/13 05:47:50;;;;;;;;;;;;;;;5.60;100.00;96381.53;5063585;28;19960;-72
2024/03/13 05:50:19;;;;;;;;;;;;;;;5.59;100.00;96378.13;5062597;28;19986;-72
2024/03/13 05:52:47;;;;;;;;;;;;;;;5.59;100.00;96377.34;5063662;28;20123;-72
2024/03/13 05:55:14;;;;;;;;;;;;;;;5.58;100.00;96381.72;5063676;28;19940;-72
2024/03/13 05:57:40;;;;;;;;;;;;;;;5.60;100.00;96379.72;5063577;28;20119;-66
2024/03/13 06:00:12;;;;;;;;;;;;;;;5.61;100.00;96385.75;5063527;28;19943;-74
2024/03/13 06:02:40;;;;;;;;;;;;;;;5.64;100.00;96383.56;5065603;28;19935;-73
2024/03/13 06:05:14;;;;;;;;;;;;;;;5.67;100.00;96392.81;5067418;28;19940;-73
2024/03/13 06:07:40;;;;;;;;;;;;;;;5.69;100.00;96401.22;5067238;28;20123;-72
2024/03/13 06:10:08;;;;;;;;;;;;;;;5.72;100.00;96395.66;5067748;28;19990;-73
2024/03/13 06:12:34;;;;;;;;;;;;;;;5.75;100.00;96397.84;5067008;28;20210;-73
2024/03/13 06:15:06;;;;;;;;;;;;;;;5.79;100.00;96404.28;5067059;28;20143;-84
2024/03/13 06:17:35;;;;;;;;;;;;;;;5.78;100.00;96402.72;5067041;28;19929;-73
2024/03/13 06:20:03;;;;;;;;;;;;;;;5.77;100.00;96405.50;5066926;28;19932;-73
2024/03/13 06:22:29;;;;;;;;;;;;;;;5.78;100.00;96407.13;5067073;28;19930;-73
2024/03/13 06:24:56;;;;;;;;;;;;;;;5.80;100.00;96412.94;5067047;28;20252;-73
2024/03/13 06:27:27;;;;;;;;;;;;;;;5.83;100.00;96410.75;5066986;28;19934;-73
2024/03/13 06:29:58;;;;;;;;;;;;;;;5.87;100.00;96418.97;5067438;28;19933;-73
2024/03/13 06:32:28;;;;;;;;;;;;;;;5.86;100.00;96414.78;5067911;28;19937;-73
2024/03/13 06:34:55;;;;;;;;;;;;;;;5.86;100.00;96425.19;5067220;28;19964;-67
2024/03/13 06:37:24;;;;;;;;;;;;;;;5.85;100.00;96413.16;5066992;28;20135;-66
2024/03/13 06:39:50;;;;;;;;;;;;;;;5.88;100.00;96423.22;5066939;28;19940;-67
2024/03/13 06:42:16;;;;;;;;;;;;;;;5.92;100.00;96423.63;5066900;28;19945;-67
2024/03/13 06:44:43;;;;;;;;;;;;;;;5.94;100.00;96425.03;5066745;28;19947;-67
2024/03/13 06:47:11;;;;;;;;;;;;;;;5.95;100.00;96424.09;5066607;28;19933;-67
2024/03/13 06:49:39;;;;;;;;;;;;;;;5.97;100.00;96427.31;5066542;28;19962;-67
2024/03/13 06:52:06;;;;;;;;;;;;;;;5.99;100.00;96434.94;5066706;28;19932;-74
2024/03/13 06:54:32;;;;;;;;;;;;;;;6.01;100.00;96430.34;5066792;28;19945;-72
2024/03/13 06:56:58;;;;;;;;;;;;;;;6.03;100.00;96431.75;5066197;28;20111;-72
2024/03/13 06:59:24;;;;;;;;;;;;;;;6.06;100.00;96435.78;5066439;28;19969;-73
2024/03/13 07:01:55;;;;;;;;;;;;;;;6.07;100.00;96435.59;5066371;28;19933;-71
2024/03/13 07:04:24;;;;;;;;;;;;;;;6.07;100.00;96432.19;5066919;28;20098;-72
2024/03/13 07:06:57;;;;;;;;;;;;;;;6.06;100.00;96441.78;5066428;28;19935;-72
2024/03/13 07:09:24;;;;;;;;;;;;;;;6.08;100.00;96439.78;5067038;28;19958;-85
2024/03/13 07:11:51;;;;;;;;;;;;;;;6.11;100.00;96449.03;5066447;28;19935;-72
2024/03/13 07:14:17;;;;;;;;;;;;;;;6.15;100.00;96450.25;5064387;28;19939;-70
2024/03/13 07:16:43;;;;;;;;;;;;;;;6.17;100.00;96448.25;5066543;28;20027;-71
2024/03/13 07:19:10;;;;;;;;;;;;;;;6.20;100.00;96454.91;5066151;28;19933;-70
2024/03/13 07:21:36;;;;;;;;;;;;;;;6.20;100.00;96460.91;5066036;28;19932;-71
2024/03/13 07:24:03;;;;;;;;;;;;;;;6.20;100.00;96465.31;5066119;28;20268;-71
2024/03/13 07:26:31;;;;;;;;;;;;;;;6.19;100.00;96459.28;5066021;28;19935;-72
2024/03/13 07:28:57;;;;;;;;;;;;;;;6.20;100.00;96460.91;5065984;28;19951;-72
2024/03/13 07:31:23;;;;;;;;;;;;;;;6.15;100.00;96460.66;5066609;28;20129;-73
2024/03/13 07:33:53;;;;;;;;;;;;;;;6.13;100.00;96457.44;5065807;28;19971;-73
2024/03/13 07:36:21;;;;;;;;;;;;;;;6.14;100.00;96461.66;5065350;28;19943;-73
2024/03/13 07:38:48;;;;;;;;;;;;;;;6.14;100.00;96466.88;5066041;28;19939;-73
2024/03/13 07:41:14;;;;;;;;;;;;;;;6.14;100.00;96463.47;5065749;28;20148;-72
2024/03/13 07:43:40;;;;;;;;;;;;;;;6.14;100.00;96466.88;5065829;28;19937;-72
2024/03/13 07:46:06;;;;;;;;;;;;;;;6.15;100.00;96471.06;5064689;28;20153;-66
2024/03/13 07:48:31;;;;;;;;;;;;;;;6.17;100.00;96469.09;5065622;28;20040;-67
2024/03/13 07:50:57;;;;;;;;;;;;;;;6.19;100.00;96468.91;5066407;28;19946;-76
2024/03/13 07:53:23;;;;;;;;;;;;;;;6.21;100.00;96474.72;5065893;28;19943;-76
2024/03/13 07:55:49;;;;;;;;;;;;;;;6.23;100.00;96475.34;5065427;28;19944;-76
2024/03/13 07:58:15;;;;;;;;;;;;;;;6.26;100.00;96477.59;5064101;28;19938;-76
2024/03/13 08:00:41;;;;;;;;;;;;;;;6.29;100.00;96478.00;5065330;28;19958;-76
2024/03/13 08:03:07;;;;;;;;;;;;;;;6.33;100.00;96483.63;5064946;28;20201;-76
2024/03/13 08:05:33;;;;;;;;;;;;;;;6.36;100.00;96490.25;5065253;28;19928;-73
2024/03/13 08:07:59;;;;;;;;;;;;;;;6.36;100.00;96485.84;5065843;28;19953;-76
2024/03/13 08:10:25;;;;;;;;;;;;;;;6.39;100.00;96482.88;5023804;28;19944;-77
2024/03/13 08:12:52;;;;;;;;;;;;;;;6.44;100.00;96492.72;5024446;28;19932;-76
2024/03/13 08:15:18;;;;;;;;;;;;;;;6.48;100.00;96488.75;5023727;28;19934;-76
2024/03/13 08:17:45;;;;;;;;;;;;;;;6.54;100.00;96495.00;5024214;28;19937;-76
2024/03/13 08:20:16;;;;;;;;;;;;;;;6.58;100.00;96498.84;5024382;28;19933;-76
2024/03/13 08:22:42;;;;;;;;;;;;;;;6.63;100.00;96499.84;5023612;28;19950;-76
2024/03/13 08:25:09;;;;;;;;;;;;;;;6.65;100.00;96500.47;5023190;28;20221;-67
2024/03/13 08:27:35;;;;;;;;;;;;;;;6.67;100.00;96503.69;5023944;28;19936;-81
2024/03/13 08:30:00;;;;;;;;;;;;;;;6.68;100.00;96500.09;5023431;28;19972;-80
2024/03/13 08:32:26;;;;;;;;;;;;;;;6.70;100.00;96505.94;5023401;28;20130;-82
2024/03/13 08:34:53;;;;;;;;;;;;;;;6.76;100.00;96512.19;5023205;28;19964;-80
2024/03/13 08:37:19;;;;;;;;;;;;;;;6.95;100.00;96510.69;5023596;28;19938;-76
2024/03/13 08:39:44;;;;;;;;;;;;;;;7.22;100.00;96513.38;5023773;28;20043;-81
2024/03/13 08:42:10;;;;;;;;;;;;;;;7.31;100.00;96509.63;5056207;28;19935;-80
2024/03/13 08:44:36;;;;;;;;;;;;;;;7.34;100.00;96511.84;5064599;28;19932;-79
2024/03/13 08:47:02;;;;;;;;;;;;;;;7.67;100.00;96518.97;5064583;28;20223;-78
2024/03/13 08:49:28;;;;;;;;;;;;;;;8.08;100.00;96518.84;5065304;28;20062;-76
2024/03/13 08:51:54;;;;;;;;;;;;;;;8.16;100.00;96509.19;5064499;28;19938;-76
2024/03/13 08:54:20;;;;;;;;;;;;;;;8.08;100.00;96518.84;5064501;28;19939;-76
2024/03/13 08:56:46;;;;;;;;;;;;;;;7.99;100.00;96516.59;5064943;28;19942;-76
2024/03/13 08:59:12;;;;;;;;;;;;;;;7.91;100.00;96534.06;5064447;28;19941;-67
2024/03/13 09:01:44;;;;;;;;;;;;;;;7.89;100.00;96532.66;5064399;28;20179;-76
2024/03/13 09:04:10;;;;;;;;;;;;;;;7.86;100.00;96530.44;5065121;28;19933;-66
2024/03/13 09:06:36;;;;;;;;;;;;;;;7.83;100.00;96536.88;5064311;28;20119;-67
2024/03/13 09:09:09;;;;;;;;;;;;;;;7.77;100.00;96537.66;5064916;28;20116;-67
2024/03/13 09:11:35;;;;;;;;;;;;;;;7.74;100.00;96538.03;5064616;28;19936;-67
2024/03/13 09:14:03;;;;;;;;;;;;;;;7.73;100.00;96542.47;5064161;28;20010;-67
2024/03/13 09:16:32;;;;;;;;;;;;;;;7.80;100.00;96547.69;5064877;28;20071;-67
2024/03/13 09:18:58;;;;;;;;;;;;;;;7.86;100.00;96541.69;5064131;28;19959;-72
2024/03/13 09:21:25;;;;;;;;;;;;;;;7.90;100.00;96548.13;5064850;28;19945;-67
2024/03/13 09:23:52;;;;;;;;;;;;;;;7.97;100.00;96549.94;5064247;28;19959;-66
2024/03/13 09:26:18;;;;;;;;;;;;;;;8.00;100.00;96552.16;5064790;28;19933;-66
2024/03/13 09:28:47;;;;;;;;;;;;;;;8.05;100.00;96545.34;5063869;28;20259;-67
2024/03/13 09:31:13;;;;;;;;;;;;;;;8.10;100.00;96552.56;5063957;28;19934;-66
2024/03/13 09:33:39;;;;;;;;;;;;;;;8.13;100.00;96552.19;5063745;28;20042;-66
2024/03/13 09:36:13;;;;;;;;;;;;;;;8.16;100.00;96551.78;5064235;28;19938;-75
2024/03/13 09:38:42;;;;;;;;;;;;;;;8.20;100.00;96552.97;5064240;28;19940;-80
2024/03/13 09:41:11;;;;;;;;;;;;;;;8.26;100.00;96549.56;5063778;28;20235;-67
2024/03/13 09:43:38;;;;;;;;;;;;;;;8.29;100.00;96548.34;5063782;28;19949;-67
2024/03/13 09:46:04;;;;;;;;;;;;;;;8.29;100.00;96548.34;5063834;28;20213;-67
2024/03/13 09:48:33;;;;;;;;;;;;;;;8.31;100.00;96547.16;5063979;28;20234;-68
2024/03/13 09:50:59;;;;;;;;;;;;;;;8.35;100.00;96547.56;5063701;28;19934;-67
2024/03/13 09:53:27;;;;;;;;;;;;;;;8.39;100.00;96548.75;5063696;28;19968;-67
2024/03/13 09:55:53;;;;;;;;;;;;;;;8.42;100.00;96555.44;5064244;28;20089;-70
2024/03/13 09:58:21;;;;;;;;;;;;;;;8.47;100.00;96555.66;5064240;28;19972;-70
2024/03/13 10:00:47;;;;;;;;;;;;;;;8.54;100.00;96557.22;5062760;28;19944;-70
2024/03/13 10:03:23;;;;;;;;;;;;;;;8.61;100.00;96553.81;5079224;28;20263;-70
2024/03/13 10:05:51;;;;;;;;;;;;;;;8.72;100.00;96559.25;5064443;28;20095;-70
2024/03/13 10:08:18;;;;;;;;;;;;;;;8.85;100.00;96557.63;5062275;28;19957;-71
2024/03/13 10:10:45;;;;;;;;;;;;;;;9.03;100.00;96562.19;5062461;28;20213;-70
2024/03/13 10:13:12;;;;;;;;;;;;;;;9.17;100.00;96561.16;5063589;28;19930;-71
2024/03/13 10:15:38;;;;;;;;;;;;;;;9.27;100.00;96563.34;5063555;28;19945;-67
2024/03/13 10:18:17;;;;;;;;;;;;;;;9.35;100.00;96557.88;5063497;28;19935;-73
2024/03/13 10:21:00;;;;;;;;;;;;;;;9.42;100.00;96561.28;5063534;28;19934;-73
2024/03/13 10:23:27;;;;;;;;;;;;;;;9.47;100.00;96561.47;5063454;28;19941;-73
2024/03/13 10:25:54;;;;;;;;;;;;;;;9.48;100.00;96562.25;5063323;28;19940;-73
2024/03/13 10:28:23;;;;;;;;;;;;;;;9.48;100.00;96555.22;5063598;28;19934;-74
2024/03/13 10:30:51;;;;;;;;;;;;;;;9.51;100.00;96564.47;5063862;28;19955;-72
2024/03/13 10:33:17;;;;;;;;;;;;;;;9.48;100.00;96564.88;5063240;28;19939;-70
2024/03/13 10:35:43;;;;;;;;;;;;;;;9.51;100.00;96561.84;5063842;28;19940;-73
2024/03/13 10:38:14;;;;;;;;;;;;;;;9.58;100.00;96564.44;5063315;28;19932;-72
2024/03/13 10:40:41;;;;;;;;;;;;;;;9.63;100.00;96565.41;5063251;28;19943;-73
2024/03/13 10:43:10;;;;;;;;;;;;;;;9.67;100.00;96563.19;5063284;28;19932;-72
2024/03/13 10:45:37;;;;;;;;;;;;;;;9.71;100.00;96567.00;5063158;28;19935;-72
2024/03/13 10:48:06;;;;;;;;;;;;;;;9.72;100.00;96565.97;5064383;28;20216;-73
2024/03/13 10:50:32;;;;;;;;;;;;;;;9.72;100.00;96569.41;5066662;28;19952;-67
2024/03/13 10:52:58;;;;;;;;;;;;;;;9.69;100.00;96566.41;5067589;28;20209;-66
2024/03/13 10:55:27;;;;;;;;;;;;;;;9.67;100.00;96569.22;5066788;28;20012;-87
2024/03/13 10:57:53;;;;;;;;;;;;;;;9.69;100.00;96571.63;5066657;28;19936;-86
2024/03/13 11:00:21;;;;;;;;;;;;;;;9.74;100.00;96571.81;5067191;28;19936;-86
2024/03/13 11:02:49;;;;;;;;;;;;;;;9.73;100.00;96562.34;5066576;28;19943;-86
2024/03/13 11:05:16;;;;;;;;;;;;;;;9.76;100.00;96567.16;5066538;28;19934;-85
2024/03/13 11:07:42;;;;;;;;;;;;;;;9.77;100.00;96565.38;5066447;28;19933;-85
2024/03/13 11:10:23;;;;;;;;;;;;;;;9.76;100.00;96561.94;5067238;28;20262;-72
2024/03/13 11:12:49;;;;;;;;;;;;;;;9.83;100.00;96565.34;5067154;28;19931;-68
2024/03/13 11:15:20;;;;;;;;;;;;;;;9.89;100.00;96561.03;5066462;28;20131;-67
2024/03/13 11:17:51;;;;;;;;;;;;;;;9.94;100.00;96569.09;5066300;28;20251;-67
2024/03/13 11:20:21;;;;;;;;;;;;;;;10.01;100.00;96564.59;5067050;28;19934;-67
2024/03/13 11:22:52;;;;;;;;;;;;;;;10.07;100.00;96570.84;5066157;28;19943;-67
2024/03/13 11:25:18;;;;;;;;;;;;;;;10.14;100.00;96561.09;5065739;28;19939;-67
2024/03/13 11:27:49;;;;;;;;;;;;;;;10.20;100.00;96562.88;5066097;28;19935;-76
2024/03/13 11:30:19;;;;;;;;;;;;;;;10.27;100.00;96571.50;5066573;28;19954;-73
2024/03/13 11:32:48;;;;;;;;;;;;;;;10.33;100.00;96567.25;5066571;28;19952;-73
2024/03/13 11:35:15;;;;;;;;;;;;;;;10.42;100.00;96565.19;5065857;28;20283;-73
2024/03/13 11:37:41;;;;;;;;;;;;;;;10.49;100.00;96558.84;5065927;28;19936;-74
2024/03/13 11:40:08;;;;;;;;;;;;;;;10.60;100.00;96567.84;5065020;28;20229;-73
2024/03/13 11:42:36;;;;;;;;;;;;;;;10.68;100.00;96562.31;5065820;28;19984;-73
2024/03/13 11:45:15;;;;;;;;;;;;;;;10.75;100.00;96551.78;5065927;28;19937;-73
2024/03/13 11:47:44;;;;;;;;;;;;;;;10.78;100.00;96559.22;5066620;28;19934;-71
2024/03/13 11:50:10;;;;;;;;;;;;;;;10.79;100.00;96557.41;5065899;28;19964;-72
2024/03/13 11:52:39;;;;;;;;;;;;;;;10.79;100.00;96554.78;5066150;28;19942;-73
2024/03/13 11:55:29;;;;;;;;;;;;;;;10.81;100.00;96550.13;5065572;28;19942;-73
2024/03/13 11:58:02;;;;;;;;;;;;;;;10.82;100.00;96549.13;5057899;28;19936;-73
2024/03/13 12:00:28;;;;;;;;;;;;;;;10.85;100.00;96552.09;5064728;28;19937;-73
2024/03/13 12:02:56;;;;;;;;;;;;;;;10.85;100.00;96551.28;5065409;28;20132;-73
2024/03/13 12:05:35;;;;;;;;;;;;;;;10.83;100.00;96545.47;5065475;28;19933;-74
2024/03/13 12:08:04;;;;;;;;;;;;;;;10.82;100.00;96536.00;5065765;28;19953;-72
2024/03/13 12:10:30;;;;;;;;;;;;;;;10.81;100.00;96529.13;5065681;28;19955;-71
2024/03/13 12:12:59;;;;;;;;;;;;;;;10.84;100.00;96539.19;5065278;28;19950;-71
2024/03/13 12:15:25;;;;;;;;;;;;;;;10.85;100.00;96532.91;5065719;28;19939;-71
2024/03/13 12:17:51;;;;;;;;;;;;;;;10.88;100.00;96540.38;5065636;28;19937;-71
2024/03/13 12:20:18;;;;;;;;;;;;;;;10.92;100.00;96538.94;5065093;28;20127;-71
2024/03/13 12:22:44;;;;;;;;;;;;;;;10.92;100.00;96542.34;5065057;28;19929;-66
2024/03/13 12:25:13;;;;;;;;;;;;;;;10.97;100.00;96534.59;5065028;28;19931;-73
2024/03/13 12:27:43;;;;;;;;;;;;;;;11.07;100.00;96539.34;5065761;28;19940;-73
2024/03/13 12:30:10;;;;;;;;;;;;;;;11.18;100.00;96537.81;5064842;28;19942;-73
2024/03/13 12:32:36;;;;;;;;;;;;;;;11.26;100.00;96531.50;5063961;28;20239;-73
2024/03/13 12:35:02;;;;;;;;;;;;;;;11.37;100.00;96536.00;5064697;28;19973;-75
2024/03/13 12:37:28;;;;;;;;;;;;;;;11.50;100.00;96525.31;5080368;28;20108;-72
2024/03/13 12:39:54;;;;;;;;;;;;;;;11.53;100.00;96527.50;5065488;28;19946;-73
2024/03/13 12:42:20;;;;;;;;;;;;;;;11.57;100.00;96520.78;5064773;28;19936;-78
2024/03/13 12:44:48;;;;;;;;;;;;;;;11.60;100.00;96519.53;5064609;28;19931;-71
2024/03/13 12:47:14;;;;;;;;;;;;;;;11.58;100.00;96527.63;5063475;28;19932;-72
2024/03/13 12:49:41;;;;;;;;;;;;;;;11.51;100.00;96526.94;5064040;28;19970;-71
2024/03/13 12:52:08;;;;;;;;;;;;;;;11.47;100.00;96525.78;5063428;28;20217;-71
2024/03/13 12:54:35;;;;;;;;;;;;;;;11.44;100.00;96518.31;5064452;28;19931;-72
2024/03/13 12:57:08;;;;;;;;;;;;;;;11.41;100.00;96510.91;5064716;28;19943;-71
2024/03/13 12:59:37;;;;;;;;;;;;;;;11.33;100.00;96512.00;5065197;28;19923;-76
2024/03/13 13:02:04;;;;;;;;;;;;;;;11.30;100.00;96517.69;5063149;28;19938;-76
2024/03/13 13:04:30;;;;;;;;;;;;;;;11.28;100.00;96513.69;5064268;28;19937;-77
2024/03/13 13:06:56;;;;;;;;;;;;;;;11.32;100.00;96512.22;5065080;28;19933;-76